MiSS Sarah — WDE9595 — position and weather

sailwx.info

Track history (hours):
 
Tides and Currents Weather Stations Pressure Air Temp Water Temp Dewpoint Dewpoint Depression Visibility Wind Speed Wind Dir Waves Ship Positions

MiSS Sarah

Owner: Higman Barge Lines, Inc, Orange, TX. More information available from US FCC via Universal Licensing System and Coast Guard Vessel Documentation Center.

Last reported at 2015-Feb-28 04:24 UTC. Time now 2015-Mar-01 11:02 UTC.
Position N 29°23' W 094°48'.

Length 24 m; draft 2.6 m.

Type: Towing. MMSI: 367419040.

Date/timePositionNaut miles runAvg speedWind from/ knotsBaromVisibWave heightAir tempDewpointWater temp
2015-Feb-28 04:24N 29°23' W 094°48'5 6.4
2015-Feb-28 03:33N 29°28' W 094°51'6 6.2
2015-Feb-28 02:33N 29°33' W 094°54'6 5.8
2015-Feb-28 01:33N 29°38' W 094°58'6 6.1
2015-Feb-28 00:33N 29°43' W 095°01'5 4.8
2015-Feb-27 23:33N 29°46' W 095°06'0 0.4
2015-Feb-27 22:31N 29°46' W 095°06'1 0.2
2015-Feb-27 19:10N 29°47' W 095°06'0 0.0
2015-Feb-27 18:33N 29°47' W 095°06'0 0.0
2015-Feb-27 17:33N 29°47' W 095°06'0 0.0
2015-Feb-27 16:33N 29°47' W 095°06'0 0.0
2015-Feb-27 15:33N 29°47' W 095°06'0 0.0
2015-Feb-27 14:33N 29°47' W 095°06'0 0.0
2015-Feb-26 20:33N 29°46' W 095°06'0 0.1
2015-Feb-26 14:33N 29°47' W 095°06'0 0.0
2015-Feb-25 16:07N 29°47' W 095°06'0 0.8
2015-Feb-25 15:33N 29°46' W 095°06'1 1.2
2015-Feb-25 14:33N 29°47' W 095°05'0 0.0
2015-Feb-25 13:33N 29°47' W 095°05'0 0.0
2015-Feb-25 12:33N 29°47' W 095°05'0 0.0
2015-Feb-25 11:33N 29°47' W 095°05'0 0.0
2015-Feb-25 10:33N 29°47' W 095°05'0 0.0
2015-Feb-25 09:33N 29°47' W 095°05'0 0.0
2015-Feb-25 08:33N 29°47' W 095°05'0 0.0
2015-Feb-25 07:33N 29°47' W 095°05'0 0.0
2015-Feb-25 06:33N 29°47' W 095°05'0 0.0
2015-Feb-25 05:33N 29°47' W 095°05'0 0.0
2015-Feb-25 04:33N 29°47' W 095°05'0 0.0
2015-Feb-25 03:33N 29°47' W 095°05'0 0.0
2015-Feb-25 02:33N 29°47' W 095°05'0 0.0
2015-Feb-25 01:33N 29°47' W 095°05'0 0.0
2015-Feb-25 00:33N 29°47' W 095°05'0 0.0
2015-Feb-24 23:33N 29°47' W 095°05'0 0.0
2015-Feb-24 22:33N 29°47' W 095°05'0 0.0
2015-Feb-24 21:33N 29°47' W 095°05'0 0.0
2015-Feb-24 20:33N 29°47' W 095°05'0 0.0
2015-Feb-24 19:33N 29°47' W 095°05'0 0.0
2015-Feb-24 18:33N 29°47' W 095°05'0 0.0
2015-Feb-24 17:30N 29°47' W 095°05'2 2.3
2015-Feb-24 16:34N 29°45' W 095°06'0 0.4
2015-Feb-24 15:30N 29°45' W 095°06'0 0.0
2015-Feb-24 14:33N 29°45' W 095°06'0 0.0
2015-Feb-24 13:33N 29°45' W 095°07'0 0.0
2015-Feb-24 12:33N 29°45' W 095°07'3 2.6
2015-Feb-24 11:33N 29°47' W 095°05'0 0.0
2015-Feb-24 10:33N 29°47' W 095°05'0 0.0
2015-Feb-24 09:33N 29°47' W 095°05'0 0.0
2015-Feb-24 08:33N 29°47' W 095°05'0 0.0
2015-Feb-24 07:33N 29°47' W 095°05'0 0.0
2015-Feb-24 06:33N 29°47' W 095°05'0 0.0
2015-Feb-24 05:33N 29°47' W 095°05'0 0.0
2015-Feb-24 04:33N 29°47' W 095°05'0 0.0
2015-Feb-24 03:33N 29°47' W 095°05'0 0.0
2015-Feb-24 02:33N 29°47' W 095°05'0 0.0
2015-Feb-24 01:33N 29°47' W 095°05'0 0.0
2015-Feb-24 00:33N 29°47' W 095°05'0 0.0
2015-Feb-23 23:33N 29°47' W 095°05'0 0.0
2015-Feb-23 22:33N 29°47' W 095°05'0 0.0
2015-Feb-23 21:33N 29°47' W 095°05'0 0.0
2015-Feb-23 20:33N 29°47' W 095°05'0 0.0
2015-Feb-23 19:33N 29°47' W 095°05'0 0.0
2015-Feb-23 18:33N 29°47' W 095°05'0 0.0
2015-Feb-23 17:33N 29°47' W 095°05'0 0.0
2015-Feb-23 16:33N 29°47' W 095°05'0 0.0
2015-Feb-23 15:31N 29°47' W 095°05'0 0.0
2015-Feb-23 14:30N 29°47' W 095°05'0 0.0
2015-Feb-23 13:33N 29°47' W 095°05'0 0.0
2015-Feb-23 12:33N 29°47' W 095°05'0 0.0
2015-Feb-23 11:33N 29°47' W 095°05'0 0.0
2015-Feb-23 10:33N 29°47' W 095°05'0 0.0
2015-Feb-23 09:33N 29°47' W 095°05'0 0.0
2015-Feb-23 08:33N 29°47' W 095°05'0 0.0
2015-Feb-23 07:33N 29°47' W 095°05'0 0.0
2015-Feb-23 06:33N 29°47' W 095°05'0 0.0
2015-Feb-23 05:33N 29°47' W 095°05'0 0.0
2015-Feb-23 04:33N 29°47' W 095°05'0 0.0
2015-Feb-23 03:33N 29°47' W 095°05'0 0.0
2015-Feb-23 02:33N 29°47' W 095°05'0 0.0
2015-Feb-23 01:33N 29°47' W 095°05'0 0.0
2015-Feb-23 00:32N 29°47' W 095°05'0 0.0
2015-Feb-22 23:33N 29°47' W 095°05'0 0.0
2015-Feb-22 22:33N 29°47' W 095°05'0 0.0
2015-Feb-22 21:33N 29°47' W 095°05'2 1.9
2015-Feb-22 20:33N 29°46' W 095°07'0 0.0
2015-Feb-22 19:33N 29°46' W 095°07'0 0.0
2015-Feb-22 18:33N 29°46' W 095°07'0 0.0
2015-Feb-22 17:33N 29°46' W 095°07'0 0.0
2015-Feb-22 16:33N 29°46' W 095°07'0 0.0
2015-Feb-22 15:33N 29°46' W 095°07'1 1.4
2015-Feb-22 14:33N 29°44' W 095°07'0 0.0
2015-Feb-22 13:33N 29°44' W 095°07'3 3.0
2015-Feb-22 12:33N 29°47' W 095°05'0 0.0
2015-Feb-22 11:33N 29°47' W 095°05'0 0.0
2015-Feb-22 10:33N 29°47' W 095°05'0 0.0
2015-Feb-22 09:33N 29°47' W 095°05'0 0.0
2015-Feb-22 08:33N 29°47' W 095°05'0 0.0
2015-Feb-22 07:33N 29°47' W 095°05'0 0.0
2015-Feb-22 06:33N 29°47' W 095°05'0 0.0
2015-Feb-22 05:33N 29°47' W 095°05'0 0.0
2015-Feb-22 04:33N 29°47' W 095°05'0 0.0
2015-Feb-22 03:33N 29°47' W 095°05'0 0.0
2015-Feb-22 02:33N 29°47' W 095°05'0 0.0
2015-Feb-22 01:33N 29°47' W 095°05'0 0.0
2015-Feb-22 00:33N 29°47' W 095°05'0 0.0
2015-Feb-21 23:20N 29°47' W 095°05'0 0.0
2015-Feb-21 21:05N 29°47' W 095°05'0 0.0
2015-Feb-21 20:33N 29°47' W 095°05'0 0.0
2015-Feb-21 19:33N 29°47' W 095°05'0 0.0
2015-Feb-21 18:33N 29°47' W 095°05'0 0.0
2015-Feb-21 17:33N 29°47' W 095°05'0 0.0
2015-Feb-21 16:33N 29°47' W 095°05'0 0.0
2015-Feb-21 15:33N 29°47' W 095°05'0 0.0
2015-Feb-21 14:33N 29°47' W 095°05'0 0.0
2015-Feb-21 13:33N 29°47' W 095°05'0 0.0
2015-Feb-21 12:34N 29°47' W 095°05'0 0.0
2015-Feb-21 11:33N 29°47' W 095°05'0 0.0
2015-Feb-21 10:33N 29°47' W 095°05'0 0.0
2015-Feb-21 09:33N 29°47' W 095°05'0 0.0
2015-Feb-21 08:33N 29°47' W 095°05'0 0.0
2015-Feb-21 07:33N 29°47' W 095°05'0 0.0
2015-Feb-21 06:33N 29°47' W 095°05'0 0.0
2015-Feb-21 05:33N 29°47' W 095°05'0 0.0
2015-Feb-21 04:33N 29°47' W 095°05'0 0.0
2015-Feb-21 03:34N 29°47' W 095°05'0 0.0
2015-Feb-21 02:33N 29°47' W 095°05'0 0.0
2015-Feb-21 01:33N 29°47' W 095°05'0 0.0
2015-Feb-21 00:32N 29°47' W 095°05'0 0.0
2015-Feb-20 23:31N 29°47' W 095°05'0 0.0
2015-Feb-20 22:33N 29°47' W 095°05'0 0.0
2015-Feb-20 21:33N 29°47' W 095°05'0 0.0
2015-Feb-20 20:32N 29°47' W 095°05'1 0.7
2015-Feb-20 19:34N 29°46' W 095°05'1 0.6
2015-Feb-20 18:33N 29°47' W 095°05'0 0.0
2015-Feb-20 17:33N 29°47' W 095°05'0 0.0
2015-Feb-20 16:33N 29°47' W 095°05'0 0.0
2015-Feb-20 15:33N 29°47' W 095°05'0 0.0
2015-Feb-20 14:33N 29°47' W 095°05'0 0.0
2015-Feb-20 13:33N 29°47' W 095°05'0 0.0
2015-Feb-20 12:32N 29°47' W 095°05'0 0.0
2015-Feb-20 11:28N 29°47' W 095°05'0 0.0
2015-Feb-20 10:33N 29°47' W 095°05'0 0.0
2015-Feb-20 09:33N 29°47' W 095°05'0 0.0
2015-Feb-20 08:33N 29°47' W 095°05'0 0.0
2015-Feb-20 07:33N 29°47' W 095°05'0 0.0
2015-Feb-20 06:33N 29°47' W 095°05'0 0.0
2015-Feb-20 05:33N 29°47' W 095°05'0 0.0
2015-Feb-20 04:33N 29°47' W 095°05'0 0.0
2015-Feb-20 03:33N 29°47' W 095°05'0 0.0
2015-Feb-20 02:18N 29°47' W 095°05'0 0.0
2015-Feb-20 01:33N 29°47' W 095°05'0 0.0
2015-Feb-20 00:32N 29°47' W 095°05'0 0.0
2015-Feb-19 23:33N 29°47' W 095°05'0 0.1
2015-Feb-19 22:33N 29°46' W 095°05'0 0.0
2015-Feb-19 21:33N 29°46' W 095°05'0 0.0
2015-Feb-19 20:33N 29°46' W 095°05'0 0.1
2015-Feb-19 19:33N 29°47' W 095°05'0 0.0
2015-Feb-19 18:33N 29°47' W 095°05'0 0.0
2015-Feb-19 17:33N 29°47' W 095°05'0 0.0
2015-Feb-19 16:33N 29°47' W 095°05'0 0.0
2015-Feb-19 15:33N 29°47' W 095°05'0 0.0
2015-Feb-19 14:33N 29°47' W 095°05'0 0.0
2015-Feb-19 13:18N 29°47' W 095°05'0 0.0
2015-Feb-19 12:33N 29°47' W 095°05'0 0.0
2015-Feb-19 11:33N 29°47' W 095°05'0 0.0
2015-Feb-19 10:30N 29°47' W 095°05'0 0.0
2015-Feb-19 09:29N 29°47' W 095°05'0 0.0
2015-Feb-19 08:27N 29°47' W 095°05'0 0.0
2015-Feb-19 07:33N 29°47' W 095°05'0 0.0
2015-Feb-19 06:33N 29°47' W 095°05'0 0.0
2015-Feb-19 05:33N 29°47' W 095°05'0 0.0
2015-Feb-19 04:33N 29°47' W 095°05'0 0.0
2015-Feb-19 03:33N 29°47' W 095°05'0 0.0
2015-Feb-19 02:33N 29°47' W 095°05'0 0.0
2015-Feb-19 01:33N 29°47' W 095°05'0 0.0
2015-Feb-19 00:33N 29°47' W 095°05'0 0.0
2015-Feb-18 23:33N 29°47' W 095°05'0 0.1
2015-Feb-18 22:33N 29°46' W 095°05'0 0.0
2015-Feb-18 21:33N 29°46' W 095°05'0 0.0
2015-Feb-18 20:33N 29°46' W 095°05'0 0.0
2015-Feb-18 19:33N 29°46' W 095°05'0 0.0
2015-Feb-18 18:33N 29°46' W 095°05'0 0.0
2015-Feb-18 17:33N 29°47' W 095°05'0 0.0
2015-Feb-18 16:33N 29°47' W 095°05'4 4.2
2015-Feb-18 15:33N 29°44' W 095°09'3 3.1
2015-Feb-18 14:33N 29°45' W 095°12'0 0.0
2015-Feb-18 13:33N 29°45' W 095°12'0 0.0
2015-Feb-18 12:33N 29°45' W 095°12'0 0.0
2015-Feb-18 11:33N 29°45' W 095°12'0 0.0
2015-Feb-18 10:33N 29°45' W 095°12'0 0.0
2015-Feb-18 09:33N 29°45' W 095°12'0 0.0
2015-Feb-18 08:33N 29°45' W 095°12'0 0.0
2015-Feb-18 07:33N 29°45' W 095°12'0 0.0
2015-Feb-18 06:33N 29°45' W 095°12'0 0.0
2015-Feb-18 05:33N 29°45' W 095°12'0 0.0
2015-Feb-18 04:33N 29°45' W 095°12'  
Track history (hours):
 
Tides and Currents Weather Stations Pressure Air Temp Water Temp Dewpoint Dewpoint Depression Visibility Wind Speed Wind Dir Waves Ship Positions

MiSS Sarah

Owner: Higman Barge Lines, Inc, Orange, TX. More information available from US FCC via Universal Licensing System and Coast Guard Vessel Documentation Center.

Last reported at 2015-Feb-28 04:24 UTC. Time now 2015-Mar-01 11:02 UTC.
Position N 29°23' W 094°48'.

Length 24 m; draft 2.6 m.

Type: Towing. MMSI: 367419040.

Date/timePositionNaut miles runAvg speedWind from/ knotsBaromVisibWave heightAir tempDewpointWater temp
2015-Feb-28 04:24N 29°23' W 094°48'5 6.4
2015-Feb-28 03:33N 29°28' W 094°51'6 6.2
2015-Feb-28 02:33N 29°33' W 094°54'6 5.8
2015-Feb-28 01:33N 29°38' W 094°58'6 6.1
2015-Feb-28 00:33N 29°43' W 095°01'5 4.8
2015-Feb-27 23:33N 29°46' W 095°06'0 0.4
2015-Feb-27 22:31N 29°46' W 095°06'1 0.2
2015-Feb-27 19:10N 29°47' W 095°06'0 0.0
2015-Feb-27 18:33N 29°47' W 095°06'0 0.0
2015-Feb-27 17:33N 29°47' W 095°06'0 0.0
2015-Feb-27 16:33N 29°47' W 095°06'0 0.0
2015-Feb-27 15:33N 29°47' W 095°06'0 0.0
2015-Feb-27 14:33N 29°47' W 095°06'0 0.0
2015-Feb-26 20:33N 29°46' W 095°06'0 0.1
2015-Feb-26 14:33N 29°47' W 095°06'0 0.0
2015-Feb-25 16:07N 29°47' W 095°06'0 0.8
2015-Feb-25 15:33N 29°46' W 095°06'1 1.2
2015-Feb-25 14:33N 29°47' W 095°05'0 0.0
2015-Feb-25 13:33N 29°47' W 095°05'0 0.0
2015-Feb-25 12:33N 29°47' W 095°05'0 0.0
2015-Feb-25 11:33N 29°47' W 095°05'0 0.0
2015-Feb-25 10:33N 29°47' W 095°05'0 0.0
2015-Feb-25 09:33N 29°47' W 095°05'0 0.0
2015-Feb-25 08:33N 29°47' W 095°05'0 0.0
2015-Feb-25 07:33N 29°47' W 095°05'0 0.0
2015-Feb-25 06:33N 29°47' W 095°05'0 0.0
2015-Feb-25 05:33N 29°47' W 095°05'0 0.0
2015-Feb-25 04:33N 29°47' W 095°05'0 0.0
2015-Feb-25 03:33N 29°47' W 095°05'0 0.0
2015-Feb-25 02:33N 29°47' W 095°05'0 0.0
2015-Feb-25 01:33N 29°47' W 095°05'0 0.0
2015-Feb-25 00:33N 29°47' W 095°05'0 0.0
2015-Feb-24 23:33N 29°47' W 095°05'0 0.0
2015-Feb-24 22:33N 29°47' W 095°05'0 0.0
2015-Feb-24 21:33N 29°47' W 095°05'0 0.0
2015-Feb-24 20:33N 29°47' W 095°05'0 0.0
2015-Feb-24 19:33N 29°47' W 095°05'0 0.0
2015-Feb-24 18:33N 29°47' W 095°05'0 0.0
2015-Feb-24 17:30N 29°47' W 095°05'2 2.3
2015-Feb-24 16:34N 29°45' W 095°06'0 0.4
2015-Feb-24 15:30N 29°45' W 095°06'0 0.0
2015-Feb-24 14:33N 29°45' W 095°06'0 0.0
2015-Feb-24 13:33N 29°45' W 095°07'0 0.0
2015-Feb-24 12:33N 29°45' W 095°07'3 2.6
2015-Feb-24 11:33N 29°47' W 095°05'0 0.0
2015-Feb-24 10:33N 29°47' W 095°05'0 0.0
2015-Feb-24 09:33N 29°47' W 095°05'0 0.0
2015-Feb-24 08:33N 29°47' W 095°05'0 0.0
2015-Feb-24 07:33N 29°47' W 095°05'0 0.0
2015-Feb-24 06:33N 29°47' W 095°05'0 0.0
2015-Feb-24 05:33N 29°47' W 095°05'0 0.0
2015-Feb-24 04:33N 29°47' W 095°05'0 0.0
2015-Feb-24 03:33N 29°47' W 095°05'0 0.0
2015-Feb-24 02:33N 29°47' W 095°05'0 0.0
2015-Feb-24 01:33N 29°47' W 095°05'0 0.0
2015-Feb-24 00:33N 29°47' W 095°05'0 0.0
2015-Feb-23 23:33N 29°47' W 095°05'0 0.0
2015-Feb-23 22:33N 29°47' W 095°05'0 0.0
2015-Feb-23 21:33N 29°47' W 095°05'0 0.0
2015-Feb-23 20:33N 29°47' W 095°05'0 0.0
2015-Feb-23 19:33N 29°47' W 095°05'0 0.0
2015-Feb-23 18:33N 29°47' W 095°05'0 0.0
2015-Feb-23 17:33N 29°47' W 095°05'0 0.0
2015-Feb-23 16:33N 29°47' W 095°05'0 0.0
2015-Feb-23 15:31N 29°47' W 095°05'0 0.0
2015-Feb-23 14:30N 29°47' W 095°05'0 0.0
2015-Feb-23 13:33N 29°47' W 095°05'0 0.0
2015-Feb-23 12:33N 29°47' W 095°05'0 0.0
2015-Feb-23 11:33N 29°47' W 095°05'0 0.0
2015-Feb-23 10:33N 29°47' W 095°05'0 0.0
2015-Feb-23 09:33N 29°47' W 095°05'0 0.0
2015-Feb-23 08:33N 29°47' W 095°05'0 0.0
2015-Feb-23 07:33N 29°47' W 095°05'0 0.0
2015-Feb-23 06:33N 29°47' W 095°05'0 0.0
2015-Feb-23 05:33N 29°47' W 095°05'0 0.0
2015-Feb-23 04:33N 29°47' W 095°05'0 0.0
2015-Feb-23 03:33N 29°47' W 095°05'0 0.0
2015-Feb-23 02:33N 29°47' W 095°05'0 0.0
2015-Feb-23 01:33N 29°47' W 095°05'0 0.0
2015-Feb-23 00:32N 29°47' W 095°05'0 0.0
2015-Feb-22 23:33N 29°47' W 095°05'0 0.0
2015-Feb-22 22:33N 29°47' W 095°05'0 0.0
2015-Feb-22 21:33N 29°47' W 095°05'2 1.9
2015-Feb-22 20:33N 29°46' W 095°07'0 0.0
2015-Feb-22 19:33N 29°46' W 095°07'0 0.0
2015-Feb-22 18:33N 29°46' W 095°07'0 0.0
2015-Feb-22 17:33N 29°46' W 095°07'0 0.0
2015-Feb-22 16:33N 29°46' W 095°07'0 0.0
2015-Feb-22 15:33N 29°46' W 095°07'1 1.4
2015-Feb-22 14:33N 29°44' W 095°07'0 0.0
2015-Feb-22 13:33N 29°44' W 095°07'3 3.0
2015-Feb-22 12:33N 29°47' W 095°05'0 0.0
2015-Feb-22 11:33N 29°47' W 095°05'0 0.0
2015-Feb-22 10:33N 29°47' W 095°05'0 0.0
2015-Feb-22 09:33N 29°47' W 095°05'0 0.0
2015-Feb-22 08:33N 29°47' W 095°05'0 0.0
2015-Feb-22 07:33N 29°47' W 095°05'0 0.0
2015-Feb-22 06:33N 29°47' W 095°05'0 0.0
2015-Feb-22 05:33N 29°47' W 095°05'0 0.0
2015-Feb-22 04:33N 29°47' W 095°05'0 0.0
2015-Feb-22 03:33N 29°47' W 095°05'0 0.0
2015-Feb-22 02:33N 29°47' W 095°05'0 0.0
2015-Feb-22 01:33N 29°47' W 095°05'0 0.0
2015-Feb-22 00:33N 29°47' W 095°05'0 0.0
2015-Feb-21 23:20N 29°47' W 095°05'0 0.0
2015-Feb-21 21:05N 29°47' W 095°05'0 0.0
2015-Feb-21 20:33N 29°47' W 095°05'0 0.0
2015-Feb-21 19:33N 29°47' W 095°05'0 0.0
2015-Feb-21 18:33N 29°47' W 095°05'0 0.0
2015-Feb-21 17:33N 29°47' W 095°05'0 0.0
2015-Feb-21 16:33N 29°47' W 095°05'0 0.0
2015-Feb-21 15:33N 29°47' W 095°05'0 0.0
2015-Feb-21 14:33N 29°47' W 095°05'0 0.0
2015-Feb-21 13:33N 29°47' W 095°05'0 0.0
2015-Feb-21 12:34N 29°47' W 095°05'0 0.0
2015-Feb-21 11:33N 29°47' W 095°05'0 0.0
2015-Feb-21 10:33N 29°47' W 095°05'0 0.0
2015-Feb-21 09:33N 29°47' W 095°05'0 0.0
2015-Feb-21 08:33N 29°47' W 095°05'0 0.0
2015-Feb-21 07:33N 29°47' W 095°05'0 0.0
2015-Feb-21 06:33N 29°47' W 095°05'0 0.0
2015-Feb-21 05:33N 29°47' W 095°05'0 0.0
2015-Feb-21 04:33N 29°47' W 095°05'0 0.0
2015-Feb-21 03:34N 29°47' W 095°05'0 0.0
2015-Feb-21 02:33N 29°47' W 095°05'0 0.0
2015-Feb-21 01:33N 29°47' W 095°05'0 0.0
2015-Feb-21 00:32N 29°47' W 095°05'0 0.0
2015-Feb-20 23:31N 29°47' W 095°05'0 0.0
2015-Feb-20 22:33N 29°47' W 095°05'0 0.0
2015-Feb-20 21:33N 29°47' W 095°05'0 0.0
2015-Feb-20 20:32N 29°47' W 095°05'1 0.7
2015-Feb-20 19:34N 29°46' W 095°05'1 0.6
2015-Feb-20 18:33N 29°47' W 095°05'0 0.0
2015-Feb-20 17:33N 29°47' W 095°05'0 0.0
2015-Feb-20 16:33N 29°47' W 095°05'0 0.0
2015-Feb-20 15:33N 29°47' W 095°05'0 0.0
2015-Feb-20 14:33N 29°47' W 095°05'0 0.0
2015-Feb-20 13:33N 29°47' W 095°05'0 0.0
2015-Feb-20 12:32N 29°47' W 095°05'0 0.0
2015-Feb-20 11:28N 29°47' W 095°05'0 0.0
2015-Feb-20 10:33N 29°47' W 095°05'0 0.0
2015-Feb-20 09:33N 29°47' W 095°05'0 0.0
2015-Feb-20 08:33N 29°47' W 095°05'0 0.0
2015-Feb-20 07:33N 29°47' W 095°05'0 0.0
2015-Feb-20 06:33N 29°47' W 095°05'0 0.0
2015-Feb-20 05:33N 29°47' W 095°05'0 0.0
2015-Feb-20 04:33N 29°47' W 095°05'0 0.0
2015-Feb-20 03:33N 29°47' W 095°05'0 0.0
2015-Feb-20 02:18N 29°47' W 095°05'0 0.0
2015-Feb-20 01:33N 29°47' W 095°05'0 0.0
2015-Feb-20 00:32N 29°47' W 095°05'0 0.0
2015-Feb-19 23:33N 29°47' W 095°05'0 0.1
2015-Feb-19 22:33N 29°46' W 095°05'0 0.0
2015-Feb-19 21:33N 29°46' W 095°05'0 0.0
2015-Feb-19 20:33N 29°46' W 095°05'0 0.1
2015-Feb-19 19:33N 29°47' W 095°05'0 0.0
2015-Feb-19 18:33N 29°47' W 095°05'0 0.0
2015-Feb-19 17:33N 29°47' W 095°05'0 0.0
2015-Feb-19 16:33N 29°47' W 095°05'0 0.0
2015-Feb-19 15:33N 29°47' W 095°05'0 0.0
2015-Feb-19 14:33N 29°47' W 095°05'0 0.0
2015-Feb-19 13:18N 29°47' W 095°05'0 0.0
2015-Feb-19 12:33N 29°47' W 095°05'0 0.0
2015-Feb-19 11:33N 29°47' W 095°05'0 0.0
2015-Feb-19 10:30N 29°47' W 095°05'0 0.0
2015-Feb-19 09:29N 29°47' W 095°05'0 0.0
2015-Feb-19 08:27N 29°47' W 095°05'0 0.0
2015-Feb-19 07:33N 29°47' W 095°05'0 0.0
2015-Feb-19 06:33N 29°47' W 095°05'0 0.0
2015-Feb-19 05:33N 29°47' W 095°05'0 0.0
2015-Feb-19 04:33N 29°47' W 095°05'0 0.0
2015-Feb-19 03:33N 29°47' W 095°05'0 0.0
2015-Feb-19 02:33N 29°47' W 095°05'0 0.0
2015-Feb-19 01:33N 29°47' W 095°05'0 0.0
2015-Feb-19 00:33N 29°47' W 095°05'0 0.0
2015-Feb-18 23:33N 29°47' W 095°05'0 0.1
2015-Feb-18 22:33N 29°46' W 095°05'0 0.0
2015-Feb-18 21:33N 29°46' W 095°05'0 0.0
2015-Feb-18 20:33N 29°46' W 095°05'0 0.0
2015-Feb-18 19:33N 29°46' W 095°05'0 0.0
2015-Feb-18 18:33N 29°46' W 095°05'0 0.0
2015-Feb-18 17:33N 29°47' W 095°05'0 0.0
2015-Feb-18 16:33N 29°47' W 095°05'4 4.2
2015-Feb-18 15:33N 29°44' W 095°09'3 3.1
2015-Feb-18 14:33N 29°45' W 095°12'0 0.0
2015-Feb-18 13:33N 29°45' W 095°12'0 0.0
2015-Feb-18 12:33N 29°45' W 095°12'0 0.0
2015-Feb-18 11:33N 29°45' W 095°12'0 0.0
2015-Feb-18 10:33N 29°45' W 095°12'0 0.0
2015-Feb-18 09:33N 29°45' W 095°12'0 0.0
2015-Feb-18 08:33N 29°45' W 095°12'0 0.0
2015-Feb-18 07:33N 29°45' W 095°12'0 0.0
2015-Feb-18 06:33N 29°45' W 095°12'0 0.0
2015-Feb-18 05:33N 29°45' W 095°12'0 0.0
2015-Feb-18 04:33N 29°45' W 095°12'  

Dump ship's entire track history